Aérodrome :
LOGIN :

S'inscrire | Disclaimer

   EN    FR    IT 

 










Légende :    VFR   VFR Marginal   IFR   IFR Intensif   IFR Très Intensif
Visi : 
Plafond : 
>= 8 km
>= 3000ft
5 à 8 km
1000 à 3000 ft
1500m à 5 km
500 à 1000 ft
800 à 1500m
200 à 500 ft
< 800m
< 200 ft
Symboles :   Orages  Brouillard  Fortes neiges  Fortes précipitations  Vent > 20 kt
SIGMETs :   Divers  Orages  Givrage  Turbulence  Onde Orograph.  Cendres Volcan.






- Altitude de l'aérodrome : 23 ft
- Code IATA : XFW


EDHI - Hamburg Finkenwerder

DERNIER METAR :
  • 271050Z 07003KT 030V110 8000 NSC 06/05 Q1022

METARs EXPIRÉS :
  • 271020Z 10003KT 070V150 8000 NSC 05/05 Q1022
  • 270950Z 11003KT 070V160 8000 NSC 05/04 Q1022
  • 270920Z 13002KT 8000 NSC 04/03 Q1022
  • 270850Z VRB02KT 8000 R05/0750N BCFG NSC 03/03 Q1022

TAF TAF EDHI
Valide du 27 à 09h jusqu'au 27 à 18h UTC


270800Z 2709/2718 09004KT 0300 FG OVC001
TEMPO 2709/2711 2500 BCFG SCT003
BECMG 2711/2713 4500 BR BKN003
TEMPO 2711/2716 6000 SCT005



MET'MAP, la Météo Aéronautique d'un coup d'oeil ! - Copyright ORBIFLY Décembre 2007 - Disclaimer

ORBIFLY MET'MAP TEAM :

Programmation & Développement : Alexandra Zaïnal
Sur une idée originale de : Baudouin d'Aumeries
Assistance à la programmation : Marc-Olivier Méhu
Soutien technique & logistique : Manuel Goepfert

Contact : metmap@orbifly.com




SOURCES & CREDITS :

   NOAA